CMB803 Details

Departure: Norfolk Naval Station (Chambers Field) (KNGU)
Arrival: Guantánamo Bay Naval Air Station (MUGM)
Route: SWOPE ECG DIW IDOLS Y323 CARPX AR3 NUCAR Y374 RUMFO ZIN EASTP SOUTP SOUTP2
Notes: USTRANSCOM CONTRACT FLIGHT | OVERFLIGHT OF CUBA PROHIBITED, SOUTP & EASTP FIXES MANDATORY


Current Weather Information
KNGU 232259Z 23009KT 10SM FEW080 FEW140 BKN300 28/20 A3005 RMK AO2 SLP177 T02780200
MUGM 232256Z 20010KT 9999 FEW015 BKN030CB BKN120 26/26 A2994 RMK TSRAE43 SLP138 OCNL LTGICCC VC S TS VC S MOV S T1 SET T2 SET T02610261